createdAt,value
2019-01-10T00:01:45.743Z,13.03
2019-01-10T00:04:12.435Z,14.18
2019-01-10T00:06:39.564Z,13.48
2019-01-10T00:09:06.475Z,10.63
2019-01-10T00:11:33.275Z,12.53
2019-01-10T00:13:59.979Z,10.50
2019-01-10T00:16:26.775Z,13.75
2019-01-10T00:18:53.775Z,14.28
2019-01-10T00:21:20.471Z,14.55
2019-01-10T00:23:47.279Z,13.35
2019-01-10T00:26:13.983Z,13.78
2019-01-10T00:28:40.684Z,11.40
2019-01-10T00:31:07.375Z,14.98
2019-01-10T00:33:34.188Z,13.80
2019-01-10T00:36:00.891Z,16.67
2019-01-10T00:38:27.592Z,11.28
2019-01-10T00:40:54.395Z,9.93
2019-01-10T00:43:21.099Z,15.10
2019-01-10T00:45:48.044Z,13.20
2019-01-10T00:48:14.747Z,11.38
2019-01-10T00:50:41.451Z,14.43
2019-01-10T00:53:08.252Z,14.05
2019-01-10T00:55:34.955Z,11.88
2019-01-10T00:58:01.657Z,17.05
2019-01-10T01:00:28.561Z,12.23
2019-01-10T01:02:55.367Z,12.75
2019-01-10T01:05:22.767Z,14.35
2019-01-10T01:07:49.856Z,16.40
2019-01-10T01:10:19.052Z,10.40
2019-01-10T01:12:45.865Z,13.72
2019-01-10T01:15:14.076Z,15.45
2019-01-10T01:17:40.984Z,12.80
2019-01-10T01:20:08.864Z,9.65
2019-01-10T01:22:35.572Z,13.48
2019-01-10T01:25:03.344Z,13.13
2019-01-10T01:27:30.043Z,10.30
2019-01-10T01:29:56.755Z,9.55
2019-01-10T01:32:23.467Z,8.28
2019-01-10T01:34:50.166Z,9.73
2019-01-10T01:37:16.871Z,10.65
2019-01-10T01:39:43.686Z,10.85
2019-01-10T01:42:10.383Z,12.80
2019-01-10T01:44:37.083Z,8.93
2019-01-10T01:47:04.217Z,12.63
2019-01-10T01:49:50.564Z,12.13
2019-01-10T01:52:17.255Z,10.75
2019-01-10T01:54:43.950Z,11.18
2019-01-10T01:57:10.744Z,12.35
2019-01-10T01:59:37.442Z,7.45
2019-01-10T02:02:04.239Z,14.10
2019-01-10T02:04:31.285Z,9.25
2019-01-10T02:06:58.907Z,14.07
2019-01-10T02:09:25.707Z,9.83
2019-01-10T02:11:52.591Z,15.68
2019-01-10T02:14:19.282Z,12.98
2019-01-10T02:16:45.979Z,13.93
2019-01-10T02:19:12.662Z,10.63
2019-01-10T02:21:39.371Z,8.53
2019-01-10T02:24:06.155Z,11.12
2019-01-10T02:26:32.859Z,13.18
2019-01-10T02:28:59.659Z,13.40
2019-01-10T02:31:26.461Z,13.65
2019-01-10T02:33:53.155Z,8.83
2019-01-10T02:36:19.944Z,10.32
2019-01-10T02:38:46.644Z,13.80
2019-01-10T02:41:13.382Z,9.23
2019-01-10T02:43:40.080Z,13.22
2019-01-10T02:46:06.874Z,10.25
2019-01-10T02:48:33.655Z,11.15
2019-01-10T02:51:00.470Z,12.10
2019-01-10T02:53:27.245Z,12.50
2019-01-10T02:55:53.944Z,9.83
2019-01-10T02:58:20.631Z,15.20
2019-01-10T03:00:47.346Z,15.80
2019-01-10T03:03:14.142Z,14.65
2019-01-10T03:05:40.955Z,14.28
2019-01-10T03:08:07.639Z,12.82
2019-01-10T03:10:34.440Z,15.32
2019-01-10T03:13:01.139Z,12.23
2019-01-10T03:15:27.925Z,13.70
2019-01-10T03:17:55.015Z,11.22
2019-01-10T03:20:22.158Z,16.85
2019-01-10T03:22:49.216Z,15.48
2019-01-10T03:25:16.486Z,14.58
2019-01-10T03:27:43.396Z,19.40
2019-01-10T03:30:18.704Z,13.53
2019-01-10T03:32:45.584Z,12.18
2019-01-10T03:35:12.486Z,9.80
2019-01-10T03:37:39.163Z,11.40
2019-01-10T03:40:09.242Z,13.72
2019-01-10T03:42:36.023Z,11.83
2019-01-10T03:45:03.956Z,15.03
2019-01-10T03:47:30.658Z,9.73
2019-01-10T03:49:57.454Z,13.18
2019-01-10T03:52:24.260Z,7.60
2019-01-10T03:54:51.563Z,12.80
2019-01-10T03:57:18.267Z,14.63
2019-01-10T03:59:44.981Z,14.70
2019-01-10T04:02:11.793Z,12.07
2019-01-10T04:04:38.495Z,10.38
2019-01-10T04:07:05.211Z,12.78
2019-01-10T04:09:32.023Z,10.60
2019-01-10T04:11:58.740Z,11.30
2019-01-10T04:14:25.443Z,13.85
2019-01-10T04:16:52.348Z,16.17
2019-01-10T04:19:19.043Z,12.05
2019-01-10T04:21:45.763Z,10.28
2019-01-10T04:24:12.574Z,10.38
2019-01-10T04:26:39.287Z,12.43
2019-01-10T04:29:05.999Z,11.90
2019-01-10T04:31:32.703Z,12.45
2019-01-10T04:33:59.412Z,11.05
2019-01-10T04:36:26.117Z,10.05
2019-01-10T04:38:52.819Z,10.72
2019-01-10T04:41:19.517Z,13.15
2019-01-10T04:43:46.229Z,13.05
2019-01-10T04:46:12.931Z,11.78
2019-01-10T04:48:39.628Z,14.07
2019-01-10T04:51:06.335Z,17.52
2019-01-10T04:53:33.027Z,18.37
2019-01-10T04:55:59.734Z,12.58
2019-01-10T04:58:26.519Z,13.08
2019-01-10T05:00:53.455Z,9.18
2019-01-10T05:03:20.147Z,18.15
2019-01-10T05:05:46.852Z,12.28
2019-01-10T05:08:13.572Z,12.85
2019-01-10T05:10:40.275Z,15.60
2019-01-10T05:13:06.977Z,13.90
2019-01-10T05:15:33.923Z,11.83
2019-01-10T05:18:00.632Z,8.70
2019-01-10T05:20:27.340Z,9.85
2019-01-10T05:22:54.148Z,11.15
2019-01-10T05:25:20.861Z,11.08
2019-01-10T05:27:47.664Z,11.48
2019-01-10T05:30:24.229Z,13.32
2019-01-10T05:32:51.152Z,12.50
2019-01-10T05:35:18.051Z,12.95
2019-01-10T05:37:44.752Z,12.47
2019-01-10T05:40:11.708Z,13.08
2019-01-10T05:42:38.419Z,13.88
2019-01-10T05:45:06.740Z,10.75
2019-01-10T05:47:33.447Z,15.00
2019-01-10T05:50:00.209Z,9.33
2019-01-10T05:52:27.061Z,16.23
2019-01-10T05:54:53.751Z,17.32
2019-01-10T05:57:20.451Z,13.05
2019-01-10T05:59:47.167Z,12.50
2019-01-10T06:02:13.915Z,11.63
2019-01-10T06:04:40.627Z,9.10
2019-01-10T06:07:07.336Z,12.68
2019-01-10T06:09:34.039Z,10.30
2019-01-10T06:12:00.739Z,10.18
2019-01-10T06:14:35.379Z,10.35
2019-01-10T06:16:56.051Z,13.40
2019-01-10T06:19:26.896Z,16.27
2019-01-10T06:21:51.471Z,12.10
2019-01-10T06:24:18.187Z,14.20
2019-01-10T06:26:44.887Z,8.40
2019-01-10T06:29:11.595Z,8.50
2019-01-10T06:31:38.322Z,11.40
2019-01-10T06:34:06.510Z,11.12
2019-01-10T06:36:33.341Z,13.70
2019-01-10T06:39:00.057Z,11.18
2019-01-10T06:41:26.760Z,10.00
2019-01-10T06:43:53.463Z,13.43
2019-01-10T06:46:20.172Z,14.53
2019-01-10T06:48:46.879Z,10.30
2019-01-10T06:51:13.595Z,15.45
2019-01-10T06:53:40.291Z,9.93
2019-01-10T06:56:06.991Z,14.78
2019-01-10T06:58:34.019Z,15.18
2019-01-10T07:01:00.725Z,12.50
2019-01-10T07:03:27.431Z,11.30
2019-01-10T07:05:54.146Z,12.93
2019-01-10T07:08:20.852Z,17.27
2019-01-10T07:10:47.555Z,12.93
2019-01-10T07:13:14.284Z,9.43
2019-01-10T07:15:40.987Z,17.05
2019-01-10T07:18:07.695Z,15.32
2019-01-10T07:20:39.147Z,14.85
2019-01-10T07:23:05.951Z,11.22
2019-01-10T07:25:32.780Z,16.57
2019-01-10T07:28:22.635Z,18.65
2019-01-10T07:30:49.443Z,11.83
2019-01-10T07:33:16.141Z,17.12
2019-01-10T07:35:42.843Z,14.47
2019-01-10T07:38:09.547Z,15.80
2019-01-10T07:40:38.084Z,15.32
2019-01-10T07:43:04.787Z,12.90
2019-01-10T07:45:31.492Z,14.60
2019-01-10T07:47:58.204Z,15.35
2019-01-10T07:50:30.407Z,16.65
2019-01-10T07:52:57.229Z,13.75
2019-01-10T07:55:23.983Z,11.45
2019-01-10T07:57:50.691Z,11.95
2019-01-10T08:00:17.609Z,14.03
2019-01-10T08:02:44.757Z,16.67
2019-01-10T08:05:12.177Z,16.32
2019-01-10T08:07:39.092Z,13.32
2019-01-10T08:10:09.967Z,16.27
2019-01-10T08:12:37.535Z,15.65
2019-01-10T08:15:11.835Z,14.53
2019-01-10T08:17:34.403Z,16.00
2019-01-10T08:20:01.177Z,13.65
2019-01-10T08:22:28.283Z,9.50
2019-01-10T08:24:55.696Z,14.00
2019-01-10T08:27:22.503Z,17.85
2019-01-10T08:29:49.199Z,15.18
2019-01-10T08:32:15.924Z,15.00
2019-01-10T08:34:42.623Z,19.30
2019-01-10T08:37:09.425Z,15.13
2019-01-10T08:39:36.135Z,13.10
2019-01-10T08:42:03.403Z,15.15
2019-01-10T08:44:30.126Z,13.98
2019-01-10T08:46:56.815Z,11.18
2019-01-10T08:49:23.627Z,15.13
2019-01-10T08:51:50.436Z,16.70
2019-01-10T08:54:17.139Z,13.88
2019-01-10T08:56:43.832Z,18.55
2019-01-10T08:59:10.623Z,14.73
2019-01-10T09:01:37.455Z,14.15
2019-01-10T09:04:04.157Z,14.43
2019-01-10T09:06:30.850Z,15.98
2019-01-10T09:08:57.561Z,14.15
2019-01-10T09:11:24.279Z,12.35
2019-01-10T09:13:50.968Z,14.80
2019-01-10T09:16:17.779Z,10.75
2019-01-10T09:18:44.498Z,10.35
2019-01-10T09:21:11.203Z,15.15
2019-01-10T09:23:37.912Z,14.87
2019-01-10T09:26:04.716Z,8.78
2019-01-10T09:28:31.419Z,15.40
2019-01-10T09:30:58.125Z,10.60
2019-01-10T09:33:24.846Z,11.40
2019-01-10T09:35:51.893Z,13.68
2019-01-10T09:38:18.962Z,11.73
2019-01-10T09:40:45.975Z,18.60
2019-01-10T09:43:12.786Z,17.02
2019-01-10T09:45:43.367Z,15.28
2019-01-10T09:48:08.155Z,16.67
2019-01-10T09:50:35.018Z,15.15
2019-01-10T09:53:01.719Z,14.93
2019-01-10T09:55:28.419Z,11.45
2019-01-10T09:57:55.119Z,17.75
2019-01-10T10:00:27.163Z,13.72
2019-01-10T10:02:53.863Z,14.50
2019-01-10T10:05:20.672Z,19.98
2019-01-10T10:07:47.471Z,14.98
2019-01-10T10:10:16.230Z,18.27
2019-01-10T10:12:43.469Z,13.62
2019-01-10T10:15:11.050Z,17.02
2019-01-10T10:17:37.876Z,13.35
2019-01-10T10:20:06.659Z,15.85
2019-01-10T10:22:33.365Z,14.87
2019-01-10T10:25:00.085Z,12.63
2019-01-10T10:27:26.892Z,14.47
2019-01-10T10:29:53.602Z,15.55
2019-01-10T10:32:20.415Z,15.35
2019-01-10T10:34:47.131Z,14.40
2019-01-10T10:37:13.984Z,11.15
2019-01-10T10:39:40.822Z,11.12
2019-01-10T10:42:07.736Z,13.25
2019-01-10T10:44:34.445Z,15.23
2019-01-10T10:47:02.428Z,15.75
2019-01-10T10:49:29.296Z,12.53
2019-01-10T10:51:56.015Z,14.85
2019-01-10T10:54:22.726Z,14.98
2019-01-10T10:56:49.520Z,15.45
2019-01-10T10:59:16.244Z,9.93
2019-01-10T11:01:42.961Z,16.20
2019-01-10T11:04:09.883Z,16.42
2019-01-10T11:06:36.595Z,14.30
2019-01-10T11:09:09.214Z,14.98
2019-01-10T11:11:35.679Z,16.70
2019-01-10T11:14:02.503Z,11.00
2019-01-10T11:16:29.335Z,11.75
2019-01-10T11:18:56.035Z,14.70
2019-01-10T11:21:22.748Z,16.40
2019-01-10T11:23:49.563Z,13.13
2019-01-10T11:26:16.279Z,13.08
2019-01-10T11:28:43.455Z,13.43
2019-01-10T11:31:10.164Z,14.25
2019-01-10T11:33:36.875Z,13.28
2019-01-10T11:36:03.809Z,13.85
2019-01-10T11:38:30.623Z,14.38
2019-01-10T11:40:57.667Z,13.68
2019-01-10T11:43:24.478Z,12.68
2019-01-10T11:45:51.295Z,9.38
2019-01-10T11:48:18.133Z,11.40
2019-01-10T11:50:44.839Z,14.47
2019-01-10T11:53:11.553Z,10.95
2019-01-10T11:55:38.356Z,13.80
2019-01-10T11:58:05.163Z,10.08
2019-01-10T12:00:32.851Z,15.10
2019-01-10T12:03:01.339Z,12.05
2019-01-10T12:05:28.070Z,11.68
2019-01-10T12:07:54.884Z,9.58
2019-01-10T12:10:21.891Z,11.50
2019-01-10T12:12:48.612Z,11.53
2019-01-10T12:15:15.681Z,12.30
2019-01-10T12:17:42.658Z,11.83
2019-01-10T12:20:10.683Z,14.47
2019-01-10T12:22:37.887Z,11.55
2019-01-10T12:25:06.919Z,12.13
2019-01-10T12:27:33.618Z,13.55
2019-01-10T12:30:00.343Z,11.70
2019-01-10T12:32:27.063Z,10.20
2019-01-10T12:34:54.159Z,12.53
2019-01-10T12:37:20.875Z,10.53
2019-01-10T12:39:47.792Z,16.07
2019-01-10T12:42:14.508Z,8.10
2019-01-10T12:44:41.229Z,11.35
2019-01-10T12:47:08.347Z,10.43
2019-01-10T12:49:35.159Z,11.75
2019-01-10T12:52:01.879Z,11.97
2019-01-10T12:54:28.587Z,9.20
2019-01-10T12:56:55.301Z,9.90
2019-01-10T12:59:22.014Z,9.50
2019-01-10T13:01:48.747Z,10.23
2019-01-10T13:04:15.467Z,13.30
2019-01-10T13:06:42.273Z,6.75
2019-01-10T13:09:09.074Z,10.30
2019-01-10T13:11:35.787Z,11.47
2019-01-10T13:14:05.480Z,7.70
2019-01-10T13:16:31.526Z,6.85
2019-01-10T13:18:58.227Z,9.57
2019-01-10T13:21:24.960Z,8.60
2019-01-10T13:23:51.676Z,9.80
2019-01-10T13:26:18.415Z,9.63
2019-01-10T13:28:45.140Z,6.85
2019-01-10T13:31:11.942Z,6.33
2019-01-10T13:33:38.664Z,11.43
2019-01-10T13:36:05.368Z,12.13
2019-01-10T13:38:32.179Z,9.47
2019-01-10T13:40:59.099Z,10.73
2019-01-10T13:43:25.817Z,10.30
2019-01-10T13:45:52.620Z,7.03
2019-01-10T13:48:19.533Z,7.70
2019-01-10T13:50:46.340Z,6.53
2019-01-10T13:53:13.375Z,11.83
2019-01-10T13:55:40.183Z,8.30
2019-01-10T13:58:07.127Z,8.33
2019-01-10T14:00:35.776Z,9.23
2019-01-10T14:03:03.180Z,6.00
2019-01-10T14:05:30.083Z,8.70
2019-01-10T14:07:57.239Z,8.77
2019-01-10T14:10:24.151Z,6.30
2019-01-10T14:12:51.076Z,9.18
2019-01-10T14:15:29.879Z,8.57
2019-01-10T14:17:56.694Z,7.23
2019-01-10T14:20:23.503Z,12.45
2019-01-10T14:22:50.311Z,8.80
2019-01-10T14:25:17.271Z,6.60
2019-01-10T14:27:44.091Z,5.60
2019-01-10T14:30:17.507Z,5.23
2019-01-10T14:32:44.216Z,5.05
2019-01-10T14:35:11.127Z,5.37
2019-01-10T14:37:38.037Z,5.97
2019-01-10T14:40:05.397Z,8.85
2019-01-10T14:42:32.099Z,6.53
2019-01-10T14:44:58.941Z,9.28
2019-01-10T14:47:25.984Z,8.13
2019-01-10T14:49:52.799Z,7.67
2019-01-10T14:52:19.604Z,5.03
2019-01-10T14:54:46.433Z,5.10
2019-01-10T14:57:13.127Z,7.97
2019-01-10T14:59:39.830Z,6.00
2019-01-10T15:02:06.732Z,7.33
2019-01-10T15:04:33.444Z,6.03
2019-01-10T15:07:00.140Z,8.40
2019-01-10T15:09:26.844Z,7.03
2019-01-10T15:11:53.555Z,8.07
2019-01-10T15:14:20.270Z,8.40
2019-01-10T15:16:47.072Z,10.93
2019-01-10T15:19:13.787Z,7.90
2019-01-10T15:21:40.605Z,11.38
2019-01-10T15:24:07.416Z,9.33
2019-01-10T15:26:34.127Z,7.80
2019-01-10T15:29:00.832Z,11.53
2019-01-10T15:31:27.535Z,8.50
2019-01-10T15:33:54.343Z,7.53
2019-01-10T15:36:21.152Z,9.03
2019-01-10T15:38:47.868Z,9.03
2019-01-10T15:41:14.687Z,7.97
2019-01-10T15:43:41.605Z,10.20
2019-01-10T15:46:08.427Z,8.65
2019-01-10T15:48:35.141Z,11.37
2019-01-10T15:51:01.948Z,12.07
2019-01-10T15:53:28.651Z,11.77
2019-01-10T15:55:55.363Z,12.73
2019-01-10T15:58:25.238Z,7.73
2019-01-10T16:00:51.935Z,7.27
2019-01-10T16:03:18.657Z,7.30
2019-01-10T16:05:45.380Z,10.18
2019-01-10T16:08:12.183Z,5.95
2019-01-10T16:10:38.899Z,11.57
2019-01-10T16:13:05.606Z,11.95
2019-01-10T16:15:32.323Z,11.40
2019-01-10T16:17:59.140Z,13.22
2019-01-10T16:20:25.963Z,9.30
2019-01-10T16:22:53.048Z,10.53
2019-01-10T16:25:19.897Z,11.03
2019-01-10T16:27:46.895Z,9.00
2019-01-10T16:30:27.340Z,10.45
2019-01-10T16:32:54.207Z,6.55
2019-01-10T16:35:21.007Z,8.70
2019-01-10T16:37:48.108Z,10.00
2019-01-10T16:40:15.496Z,7.15
2019-01-10T16:42:42.299Z,8.20
2019-01-10T16:45:12.607Z,7.67
2019-01-10T16:47:39.420Z,5.85
2019-01-10T16:50:07.879Z,7.08
2019-01-10T16:52:34.743Z,5.05
2019-01-10T16:55:01.703Z,6.50
2019-01-10T16:57:28.473Z,7.97
2019-01-10T16:59:55.259Z,8.93
2019-01-10T17:02:22.020Z,7.97
2019-01-10T17:04:48.728Z,5.97
2019-01-10T17:07:15.482Z,5.22
2019-01-10T17:09:42.248Z,5.58
2019-01-10T17:12:08.964Z,6.30
2019-01-10T17:14:35.679Z,4.25
2019-01-10T17:17:02.395Z,4.17
2019-01-10T17:19:29.123Z,6.95
2019-01-10T17:21:55.948Z,5.30
2019-01-10T17:24:22.651Z,5.72
2019-01-10T17:26:49.367Z,6.53
2019-01-10T17:29:16.116Z,8.18
2019-01-10T17:31:42.833Z,4.33
2019-01-10T17:34:09.539Z,8.55
2019-01-10T17:36:36.252Z,6.92
2019-01-10T17:39:06.926Z,5.85
2019-01-10T17:41:33.738Z,7.22
2019-01-10T17:44:00.464Z,5.00
2019-01-10T17:46:27.267Z,3.55
2019-01-10T17:48:54.089Z,5.67
2019-01-10T17:51:20.794Z,3.35
2019-01-10T17:53:47.504Z,5.67
2019-01-10T17:56:14.279Z,9.08
2019-01-10T17:58:40.991Z,19.48
2019-01-10T18:01:07.692Z,7.70
2019-01-10T18:03:39.957Z,8.65
2019-01-10T18:06:03.739Z,6.30
2019-01-10T18:08:30.451Z,3.30
2019-01-10T18:10:57.278Z,4.40
2019-01-10T18:13:24.319Z,3.10
2019-01-10T18:15:51.027Z,3.80
2019-01-10T18:18:17.849Z,8.75
2019-01-10T18:20:44.551Z,5.05
2019-01-10T18:23:12.101Z,7.53
2019-01-10T18:25:39.667Z,8.15
2019-01-10T18:28:06.589Z,11.33
2019-01-10T18:30:33.763Z,10.53
2019-01-10T18:33:00.579Z,8.10
2019-01-10T18:35:27.411Z,6.30
2019-01-10T18:37:54.219Z,7.40
2019-01-10T18:40:21.231Z,8.15
2019-01-10T18:42:48.051Z,5.20
2019-01-10T18:45:35.605Z,6.67
2019-01-10T18:48:02.641Z,7.70
2019-01-10T18:50:29.447Z,6.55
2019-01-10T18:52:56.159Z,8.08
2019-01-10T18:55:23.066Z,5.03
2019-01-10T18:57:49.906Z,6.08
2019-01-10T19:00:21.614Z,5.35
2019-01-10T19:02:48.625Z,8.25
2019-01-10T19:05:15.355Z,4.50
2019-01-10T19:07:42.154Z,3.45
2019-01-10T19:10:10.315Z,7.72
2019-01-10T19:12:37.018Z,5.65
2019-01-10T19:15:05.259Z,5.58
2019-01-10T19:17:31.967Z,6.70
2019-01-10T19:19:58.691Z,7.15
2019-01-10T19:22:25.419Z,5.50
2019-01-10T19:24:52.111Z,6.05
2019-01-10T19:27:18.829Z,5.80
2019-01-10T19:29:45.544Z,4.35
2019-01-10T19:32:12.259Z,5.10
2019-01-10T19:34:39.108Z,6.33
2019-01-10T19:37:05.815Z,7.58
2019-01-10T19:39:32.635Z,6.22
2019-01-10T19:41:59.371Z,4.00
2019-01-10T19:44:26.331Z,9.13
2019-01-10T19:46:53.136Z,6.72
2019-01-10T19:49:19.855Z,6.33
2019-01-10T19:51:46.671Z,8.53
2019-01-10T19:54:13.404Z,7.03
2019-01-10T19:56:40.133Z,10.15
2019-01-10T19:59:07.239Z,9.13
2019-01-10T20:01:37.644Z,13.72
2019-01-10T20:04:02.859Z,8.05
2019-01-10T20:06:29.675Z,7.15
2019-01-10T20:08:56.386Z,7.92
2019-01-10T20:11:23.114Z,9.58
2019-01-10T20:13:56.323Z,9.00
2019-01-10T20:16:23.044Z,7.50
2019-01-10T20:18:49.753Z,11.25
2019-01-10T20:21:16.559Z,8.08
2019-01-10T20:23:43.373Z,9.90
2019-01-10T20:26:10.180Z,10.32
2019-01-10T20:28:36.987Z,8.90
2019-01-10T20:31:05.264Z,12.88
2019-01-10T20:33:32.315Z,16.73
2019-01-10T20:35:59.024Z,11.08
2019-01-10T20:38:25.936Z,11.30
2019-01-10T20:40:52.643Z,8.80
2019-01-10T20:43:19.558Z,10.88
2019-01-10T20:45:46.267Z,11.70
2019-01-10T20:48:12.992Z,6.65
2019-01-10T20:50:39.695Z,10.15
2019-01-10T20:53:06.619Z,12.45
2019-01-10T20:55:33.323Z,8.50
2019-01-10T20:58:00.132Z,19.32
2019-01-10T21:00:28.435Z,10.90
2019-01-10T21:02:55.289Z,9.85
2019-01-10T21:05:21.998Z,11.48
2019-01-10T21:07:49.486Z,9.08
2019-01-10T21:10:17.082Z,9.98
2019-01-10T21:12:44.036Z,10.70
2019-01-10T21:15:13.943Z,7.95
2019-01-10T21:17:40.959Z,12.58
2019-01-10T21:20:08.187Z,13.85
2019-01-10T21:22:35.007Z,11.08
2019-01-10T21:25:01.807Z,9.10
2019-01-10T21:27:28.529Z,13.50
2019-01-10T21:29:55.255Z,8.93
2019-01-10T21:32:21.985Z,8.83
2019-01-10T21:34:48.695Z,8.65
2019-01-10T21:37:15.408Z,9.75
2019-01-10T21:39:42.291Z,12.35
2019-01-10T21:42:09.328Z,17.87
2019-01-10T21:44:36.044Z,15.00
2019-01-10T21:47:02.963Z,15.75
2019-01-10T21:49:29.675Z,13.75
2019-01-10T21:51:56.388Z,12.33
2019-01-10T21:54:23.091Z,10.25
2019-01-10T21:56:49.805Z,14.78
2019-01-10T21:59:16.513Z,15.00
2019-01-10T22:01:43.242Z,14.60
2019-01-10T22:04:10.043Z,13.70
2019-01-10T22:06:36.763Z,14.00
2019-01-10T22:09:05.851Z,15.98
2019-01-10T22:11:32.570Z,15.75
2019-01-10T22:13:59.271Z,18.32
2019-01-10T22:16:25.984Z,21.75
2019-01-10T22:18:52.704Z,16.90
2019-01-10T22:21:19.691Z,18.12
2019-01-10T22:23:46.466Z,20.43
2019-01-10T22:26:13.219Z,17.27
2019-01-10T22:28:39.921Z,17.87
2019-01-10T22:31:07.429Z,23.05
2019-01-10T22:33:34.343Z,19.42
2019-01-10T22:36:01.647Z,24.23
2019-01-10T22:38:28.359Z,21.95
2019-01-10T22:40:55.067Z,26.27
2019-01-10T22:43:21.791Z,22.70
2019-01-10T22:45:48.492Z,24.67
2019-01-10T22:48:15.211Z,29.18
2019-01-10T22:50:41.914Z,23.90
2019-01-10T22:53:08.624Z,23.05
2019-01-10T22:55:35.436Z,21.77
2019-01-10T22:58:02.264Z,24.07
2019-01-10T23:01:13.452Z,28.73
2019-01-10T23:03:41.385Z,26.05
2019-01-10T23:06:08.191Z,22.48
2019-01-10T23:08:41.936Z,22.93
2019-01-10T23:11:15.674Z,21.33
2019-01-10T23:13:50.075Z,27.05
2019-01-10T23:16:19.203Z,30.82
2019-01-10T23:18:45.911Z,23.20
2019-01-10T23:21:13.027Z,22.60
2019-01-10T23:23:40.179Z,29.15
2019-01-10T23:26:06.988Z,27.15
2019-01-10T23:28:38.614Z,25.40
2019-01-10T23:31:07.775Z,27.82
2019-01-10T23:33:34.484Z,21.97
2019-01-10T23:36:03.238Z,30.17
2019-01-10T23:38:30.760Z,22.90
2019-01-10T23:40:58.472Z,25.70
2019-01-10T23:43:25.399Z,32.08
2019-01-10T23:45:52.303Z,27.80
2019-01-10T23:48:19.015Z,25.92
2019-01-10T23:50:45.927Z,28.38
2019-01-10T23:53:12.839Z,26.37
2019-01-10T23:55:39.991Z,28.12
2019-01-10T23:58:06.794Z,28.38
